Time;durP1;ratioP1;P1;durP2;ratioP2;P2;SDS_P1;SDS_P2;PMS_P1;PMS_P2;Temp;Humidity;BMP_temperature;BMP_pressure;BME280_temperature;BME280_humidity;BME280_pressure;Samples;Min_cycle;Max_cycle;Signal;HPM_P1;HPM_P2
2022/03/26 00:00:27;;;;;;;60.75;30.92;;;6.70;66.00;;;;;;6260129;22;20032;-86
2022/03/26 00:03:15;;;;;;;56.58;30.15;;;6.70;64.80;;;;;;6282510;22;20027;-87
2022/03/26 00:06:08;;;;;;;57.40;30.90;;;6.80;65.50;;;;;;6282123;22;20046;-84
2022/03/26 00:09:14;;;;;;;60.10;30.65;;;6.70;64.10;;;;;;6281842;22;20081;-86
2022/03/26 00:12:02;;;;;;;60.30;30.63;;;6.60;63.80;;;;;;6258186;22;20016;-85
2022/03/26 00:14:50;;;;;;;59.90;31.65;;;6.50;64.90;;;;;;6257439;22;20384;-84
2022/03/26 00:17:38;;;;;;;66.50;31.65;;;6.40;65.00;;;;;;6282378;22;20130;-84
2022/03/26 00:20:26;;;;;;;57.03;30.58;;;6.30;65.60;;;;;;6259335;22;20028;-86
2022/03/26 00:23:14;;;;;;;57.20;31.48;;;6.10;66.30;;;;;;6282609;22;20034;-86
2022/03/26 00:26:01;;;;;;;56.85;29.70;;;5.90;67.60;;;;;;6261835;22;20035;-84
2022/03/26 00:28:49;;;;;;;58.03;31.10;;;5.80;68.30;;;;;;6285638;22;20028;-84
2022/03/26 00:31:37;;;;;;;53.03;29.92;;;5.70;70.00;;;;;;6261990;22;20035;-86
2022/03/26 00:34:27;;;;;;;64.28;32.00;;;5.60;71.90;;;;;;6222268;23;20048;-85
2022/03/26 00:37:15;;;;;;;57.40;31.13;;;5.50;72.30;;;;;;6134748;23;20030;-84
2022/03/26 00:40:03;;;;;;;58.17;31.58;;;5.40;72.00;;;;;;6215147;23;20083;-85
2022/03/26 00:42:51;;;;;;;57.03;30.13;;;5.30;72.50;;;;;;6130906;23;20030;-86
2022/03/26 00:45:39;;;;;;;56.58;29.15;;;5.30;72.20;;;;;;6216469;23;20394;-85
2022/03/26 00:48:34;;;;;;;58.40;30.90;;;5.30;73.30;;;;;;6130092;23;20026;-86
2022/03/26 00:51:21;;;;;;;64.55;31.60;;;5.30;73.60;;;;;;6216073;22;20022;-86
2022/03/26 00:54:14;;;;;;;58.88;30.42;;;5.30;73.70;;;;;;6131534;23;20099;-85
2022/03/26 00:57:36;;;;;;;61.53;31.80;;;5.30;74.80;;;;;;6131059;23;20026;-87
2022/03/26 01:00:25;;;;;;;59.78;30.75;;;5.30;75.40;;;;;;6217351;22;20026;-85
2022/03/26 01:03:18;;;;;;;57.30;29.23;;;5.30;75.50;;;;;;6132571;23;20030;-85
2022/03/26 01:06:13;;;;;;;69.32;30.33;;;5.20;76.50;;;;;;6132395;23;20029;-87
2022/03/26 01:09:01;;;;;;;65.05;31.77;;;5.30;78.40;;;;;;6216645;23;20026;-85
2022/03/26 01:11:49;;;;;;;57.97;30.88;;;5.40;76.90;;;;;;6197569;23;20128;-86
2022/03/26 01:14:39;;;;;;;59.47;30.88;;;5.50;76.20;;;;;;6218003;23;20033;-86
2022/03/26 01:17:26;;;;;;;58.63;30.10;;;5.60;75.90;;;;;;6134269;23;20080;-86
2022/03/26 01:20:13;;;;;;;57.67;30.05;;;5.70;75.40;;;;;;6133011;23;20117;-84
2022/03/26 01:23:04;;;;;;;56.72;28.75;;;5.60;75.70;;;;;;6136432;23;20040;-86
2022/03/26 01:25:51;;;;;;;52.53;28.60;;;5.60;77.00;;;;;;6138125;23;20052;-85
2022/03/26 01:28:42;;;;;;;56.28;29.70;;;5.50;76.90;;;;;;6222042;23;20022;-84
2022/03/26 01:31:30;;;;;;;56.17;30.33;;;5.40;76.70;;;;;;6225638;23;20025;-84
2022/03/26 01:34:25;;;;;;;55.40;29.52;;;5.50;78.60;;;;;;6264377;22;20035;-86
2022/03/26 01:37:16;;;;;;;57.70;28.95;;;5.50;77.20;;;;;;6298863;22;20091;-83
2022/03/26 01:40:05;;;;;;;54.53;29.48;;;5.50;76.70;;;;;;6278910;22;20012;-85
2022/03/26 01:42:54;;;;;;;55.70;29.90;;;5.40;77.80;;;;;;6269524;22;20034;-86
2022/03/26 01:45:42;;;;;;;63.15;30.40;;;5.30;78.20;;;;;;6288721;22;20035;-84
2022/03/26 01:48:29;;;;;;;64.57;31.05;;;5.20;79.70;;;;;;6267943;22;20102;-84
2022/03/26 01:51:17;;;;;;;56.78;28.63;;;5.10;82.60;;;;;;6265949;22;20024;-84
2022/03/26 01:54:07;;;;;;;54.55;29.45;;;4.90;83.30;;;;;;6276133;22;20135;-86
2022/03/26 01:57:03;;;;;;;60.53;30.98;;;4.80;85.70;;;;;;6267115;22;20026;-85
2022/03/26 01:59:51;;;;;;;52.70;28.30;;;4.70;86.10;;;;;;6289319;22;20024;-88
2022/03/26 02:02:43;;;;;;;54.42;28.65;;;4.60;89.30;;;;;;6292149;22;20081;-86
2022/03/26 02:05:42;;;;;;;52.80;29.65;;;4.60;90.30;;;;;;6275044;22;20027;-84
2022/03/26 02:12:01;;;;;;;52.78;27.95;;;4.40;93.80;;;;;;6299361;22;20019;-86
2022/03/26 02:15:28;;;;;;;60.63;30.15;;;4.30;94.30;;;;;;6296864;22;20035;-84
2022/03/26 02:25:21;;;;;;;61.75;30.40;;;4.10;99.40;;;;;;6324325;22;20010;-85
2022/03/26 02:28:09;;;;;;;62.85;30.98;;;4.00;98.10;;;;;;6296264;22;20089;-85
2022/03/26 02:31:16;;;;;;;56.47;28.52;;;4.00;99.90;;;;;;6313117;22;20049;-85
2022/03/26 02:34:12;;;;;;;59.83;28.20;;;4.00;1.00;;;;;;6310697;22;20291;-85
2022/03/26 02:37:00;;;;;;;59.67;30.98;;;4.00;1.00;;;;;;6304947;22;20042;-85
2022/03/26 02:39:47;;;;;;;58.00;29.10;;;4.00;99.90;;;;;;6284912;22;20035;-86
2022/03/26 02:42:46;;;;;;;55.85;29.20;;;4.00;99.90;;;;;;6304436;22;20030;-85
2022/03/26 02:45:44;;;;;;;59.88;29.58;;;4.00;1.00;;;;;;6304569;22;20176;-86
2022/03/26 02:48:33;;;;;;;65.32;31.08;;;4.00;6.40;;;;;;6303859;22;20260;-86
2022/03/26 02:51:20;;;;;;;63.17;30.05;;;4.00;99.90;;;;;;6305490;22;20023;-86
2022/03/26 02:54:18;;;;;;;62.35;31.63;;;4.00;99.90;;;;;;6283294;22;20020;-85
2022/03/26 02:57:06;;;;;;;63.13;31.13;;;4.00;1.00;;;;;;6309204;22;20019;-85
2022/03/26 02:59:54;;;;;;;65.97;30.33;;;3.90;99.90;;;;;;6283366;22;20137;-84
2022/03/26 03:02:42;;;;;;;56.70;29.98;;;4.00;99.90;;;;;;6305530;22;20046;-85
2022/03/26 03:05:31;;;;;;;62.75;29.73;;;4.00;99.90;;;;;;6293798;22;20059;-84
2022/03/26 03:08:19;;;;;;;62.83;30.23;;;4.00;84.60;;;;;;6319084;22;20023;-87
2022/03/26 03:11:12;;;;;;;62.45;30.92;;;3.90;99.90;;;;;;6289969;22;20073;-86
2022/03/26 03:14:04;;;;;;;63.55;32.65;;;3.80;99.90;;;;;;6286072;22;20193;-85
2022/03/26 03:16:53;;;;;;;60.65;31.48;;;3.70;99.90;;;;;;6308258;22;20399;-85
2022/03/26 03:19:40;;;;;;;60.72;29.27;;;3.70;99.90;;;;;;6284081;22;20096;-85
2022/03/26 03:22:27;;;;;;;68.13;32.55;;;3.60;99.90;;;;;;6306360;22;20422;-85
2022/03/26 03:25:18;;;;;;;63.97;29.90;;;3.60;99.90;;;;;;6307120;22;20023;-85
2022/03/26 03:28:06;;;;;;;63.70;32.35;;;3.60;99.90;;;;;;6304552;22;20033;-85
2022/03/26 03:30:56;;;;;;;62.00;32.28;;;3.50;1.00;;;;;;6302642;22;20062;-84
2022/03/26 03:33:43;;;;;;;63.65;32.05;;;3.50;1.00;;;;;;6302489;22;20038;-83
2022/03/26 03:36:44;;;;;;;61.55;31.25;;;3.40;99.90;;;;;;6307045;22;20046;-86
2022/03/26 03:39:32;;;;;;;62.35;31.52;;;3.50;99.90;;;;;;6306713;22;20406;-85
2022/03/26 03:42:19;;;;;;;64.10;32.58;;;3.50;1.00;;;;;;6306264;22;20031;-85
2022/03/26 03:45:28;;;;;;;67.95;33.03;;;3.60;1.00;;;;;;6306157;22;20027;-87
2022/03/26 03:48:15;;;;;;;63.45;32.05;;;3.60;1.00;;;;;;6304523;22;20055;-85
2022/03/26 03:51:02;;;;;;;62.40;32.47;;;3.60;1.00;;;;;;6284839;22;20329;-86
2022/03/26 03:53:54;;;;;;;64.85;32.40;;;3.50;1.00;;;;;;6306755;22;20094;-85
2022/03/26 03:56:41;;;;;;;63.13;33.88;;;3.40;1.00;;;;;;6306518;22;20030;-85
2022/03/26 03:59:29;;;;;;;70.38;33.92;;;3.30;99.90;;;;;;6284138;22;20058;-85
2022/03/26 04:02:18;;;;;;;63.55;32.53;;;3.20;99.90;;;;;;6282731;22;20023;-84
2022/03/26 04:05:09;;;;;;;62.10;33.13;;;3.10;1.00;;;;;;6263490;22;20019;-86
2022/03/26 04:08:02;;;;;;;58.97;30.77;;;3.10;49.40;;;;;;6307550;22;20027;-86
2022/03/26 04:10:51;;;;;;;67.93;33.60;;;3.10;99.90;;;;;;6284624;22;20027;-87
2022/03/26 04:13:41;;;;;;;58.58;32.30;;;3.00;99.90;;;;;;6306809;22;20141;-85
2022/03/26 04:16:31;;;;;;;63.58;32.58;;;2.90;99.90;;;;;;6283685;22;20019;-85
2022/03/26 04:19:18;;;;;;;61.45;32.20;;;2.90;99.90;;;;;;6283886;22;20030;-85
2022/03/26 04:22:06;;;;;;;68.03;34.05;;;2.70;1.00;;;;;;6150232;23;20033;-87
2022/03/26 04:24:54;;;;;;;65.45;34.55;;;2.70;99.90;;;;;;6236867;22;20029;-86
2022/03/26 04:27:46;;;;;;;64.68;34.00;;;2.60;1.00;;;;;;6151902;23;20125;-85
2022/03/26 04:30:33;;;;;;;64.47;34.65;;;2.60;1.00;;;;;;6235213;22;20029;-85
2022/03/26 04:33:20;;;;;;;65.93;32.78;;;2.50;99.90;;;;;;6235026;22;20290;-85
2022/03/26 04:36:10;;;;;;;66.15;32.47;;;2.40;47.50;;;;;;6234333;22;20083;-86
2022/03/26 04:38:59;;;;;;;65.90;34.78;;;2.40;99.90;;;;;;6150301;23;20025;-85
2022/03/26 04:41:50;;;;;;;64.35;35.30;;;2.40;99.90;;;;;;6150255;23;20040;-87
2022/03/26 04:44:37;;;;;;;66.28;32.90;;;2.50;1.00;;;;;;6235807;22;20029;-86
2022/03/26 04:47:30;;;;;;;66.78;34.97;;;2.50;1.00;;;;;;6235548;22;20401;-86
2022/03/26 04:50:17;;;;;;;67.47;35.65;;;2.40;99.90;;;;;;6150280;23;20025;-86
2022/03/26 04:53:05;;;;;;;65.18;34.10;;;2.40;1.00;;;;;;6150072;23;20123;-85
2022/03/26 04:55:58;;;;;;;73.68;35.60;;;2.40;99.90;;;;;;6150368;23;20026;-87
2022/03/26 04:58:45;;;;;;;71.22;35.58;;;2.40;1.00;;;;;;6151450;22;20029;-86
2022/03/26 05:01:35;;;;;;;64.65;34.63;;;2.30;99.90;;;;;;6150546;23;20130;-84
2022/03/26 05:04:22;;;;;;;63.28;35.33;;;2.30;99.90;;;;;;6149822;22;20333;-85
2022/03/26 05:10:27;;;;;;;77.85;36.10;;;2.20;1.00;;;;;;6151195;23;20405;-85
2022/03/26 05:13:15;;;;;;;65.75;34.90;;;2.20;99.90;;;;;;6239238;22;20042;-85
2022/03/26 05:16:03;;;;;;;67.20;36.63;;;2.20;1.00;;;;;;6150104;22;20192;-86
2022/03/26 05:18:53;;;;;;;68.50;35.53;;;2.10;99.90;;;;;;6149905;23;20432;-85
2022/03/26 05:21:42;;;;;;;67.55;35.90;;;2.20;1.00;;;;;;6302931;22;20193;-85
2022/03/26 05:24:33;;;;;;;69.22;34.50;;;2.10;99.90;;;;;;6305454;22;20092;-86
2022/03/26 05:27:23;;;;;;;70.70;34.10;;;2.10;99.90;;;;;;6317387;22;20027;-87
2022/03/26 05:30:19;;;;;;;67.38;35.75;;;2.00;99.90;;;;;;6312523;22;20053;-86
2022/03/26 05:33:06;;;;;;;70.47;36.50;;;2.10;99.90;;;;;;6284534;22;20049;-85
2022/03/26 05:35:54;;;;;;;71.45;35.78;;;2.20;1.00;;;;;;6283809;22;20023;-86
2022/03/26 05:38:42;;;;;;;64.88;33.72;;;2.20;38.60;;;;;;6307190;22;20027;-86
2022/03/26 05:41:31;;;;;;;68.78;34.38;;;2.20;99.90;;;;;;6309092;22;20407;-85
2022/03/26 05:44:30;;;;;;;69.55;33.80;;;2.30;99.90;;;;;;6306801;22;20055;-85
2022/03/26 05:47:19;;;;;;;73.50;33.63;;;2.30;1.00;;;;;;6303412;22;20023;-83
2022/03/26 05:50:10;;;;;;;62.00;34.08;;;2.40;1.00;;;;;;6284442;22;20433;-84
2022/03/26 05:52:59;;;;;;;66.13;34.88;;;2.50;1.00;;;;;;6305130;22;20071;-85
2022/03/26 05:56:11;;;;;;;67.00;35.72;;;2.60;99.90;;;;;;6284709;22;20024;-87
2022/03/26 05:59:20;;;;;;;66.63;33.03;;;2.70;97.30;;;;;;6282658;22;20049;-87
2022/03/26 06:02:35;;;;;;;67.18;34.20;;;2.70;1.00;;;;;;6305448;22;20031;-86
2022/03/26 06:05:46;;;;;;;64.13;33.63;;;2.80;99.90;;;;;;6283270;22;20027;-84
2022/03/26 06:08:42;;;;;;;64.72;32.72;;;2.90;99.90;;;;;;6282554;22;20590;-86
2022/03/26 06:11:30;;;;;;;63.35;30.83;;;3.00;99.90;;;;;;6306626;22;20019;-86
2022/03/26 06:14:18;;;;;;;68.43;33.65;;;3.20;1.00;;;;;;6282398;22;20030;-86
2022/03/26 06:17:07;;;;;;;60.95;32.05;;;3.20;1.00;;;;;;6284256;22;20046;-83
2022/03/26 06:19:54;;;;;;;61.92;32.53;;;3.40;99.90;;;;;;6303098;22;20088;-84
2022/03/26 06:22:41;;;;;;;67.38;32.92;;;3.60;99.90;;;;;;6304791;22;20109;-83
2022/03/26 06:25:31;;;;;;;56.90;30.08;;;3.90;1.00;;;;;;6283714;22;20027;-85
2022/03/26 06:28:19;;;;;;;61.03;32.35;;;4.10;1.00;;;;;;6304555;22;20410;-84
2022/03/26 06:31:08;;;;;;;64.80;32.42;;;4.50;99.90;;;;;;6305809;22;20039;-85
2022/03/26 06:33:56;;;;;;;66.25;32.75;;;4.80;99.90;;;;;;6305354;22;20027;-85
2022/03/26 06:36:45;;;;;;;58.30;32.63;;;5.20;99.90;;;;;;6304920;22;20023;-84
2022/03/26 06:39:32;;;;;;;64.25;32.88;;;5.60;2.10;;;;;;6283788;22;20034;-83
2022/03/26 06:42:22;;;;;;;63.22;33.13;;;5.90;1.00;;;;;;6305330;22;20106;-85
2022/03/26 06:45:11;;;;;;;57.75;31.35;;;6.10;1.00;;;;;;6314935;22;20042;-84
2022/03/26 06:47:59;;;;;;;53.75;30.00;;;6.40;1.00;;;;;;6292202;22;20069;-85
2022/03/26 06:50:46;;;;;;;59.63;30.55;;;6.80;99.90;;;;;;6315572;22;20456;-84
2022/03/26 06:53:37;;;;;;;56.65;29.00;;;7.30;99.90;;;;;;6289706;22;20031;-84
2022/03/26 06:56:25;;;;;;;58.35;29.92;;;7.60;99.90;;;;;;6280542;22;20011;-82
2022/03/26 07:02:59;;;;;;;56.72;31.13;;;8.30;99.90;;;;;;6196691;23;20096;-84
2022/03/26 07:05:50;;;;;;;59.88;33.53;;;8.70;99.90;;;;;;6239180;22;20031;-86
2022/03/26 07:09:30;;;;;;;60.80;34.03;;;8.60;99.90;;;;;;6315736;22;20019;-86
2022/03/26 07:12:36;;;;;;;62.25;32.05;;;8.50;99.90;;;;;;6194125;23;20040;-87
2022/03/26 07:15:52;;;;;;;64.13;32.75;;;8.80;99.90;;;;;;6232575;22;20102;-87
2022/03/26 07:18:40;;;;;;;57.25;31.25;;;8.90;99.90;;;;;;6305133;22;20042;-85
2022/03/26 07:21:27;;;;;;;57.47;31.27;;;9.10;99.90;;;;;;6283690;22;20096;-87
2022/03/26 07:24:17;;;;;;;58.05;32.28;;;9.70;99.90;;;;;;6284919;22;20092;-87
2022/03/26 07:27:05;;;;;;;52.25;29.85;;;10.30;73.00;;;;;;6284864;22;20023;-89
2022/03/26 07:29:52;;;;;;;55.35;29.65;;;10.70;56.80;;;;;;6306271;22;20035;-88
2022/03/26 07:32:44;;;;;;;57.03;31.17;;;11.20;22.90;;;;;;6285935;22;20023;-87
2022/03/26 07:35:31;;;;;;;62.03;31.77;;;11.30;10.50;;;;;;6283960;22;20027;-85
2022/03/26 07:38:21;;;;;;;51.83;30.60;;;11.20;9.00;;;;;;6282739;22;20031;-83
2022/03/26 07:41:08;;;;;;;56.10;30.98;;;11.20;2.70;;;;;;6284636;22;20023;-84
2022/03/26 07:44:23;;;;;;;57.00;31.60;;;11.10;1.00;;;;;;6301991;22;20042;-82
2022/03/26 07:47:25;;;;;;;57.45;30.20;;;11.30;1.00;;;;;;6280758;22;20023;-82
2022/03/26 07:51:20;;;;;;;57.13;31.17;;;11.60;1.00;;;;;;6162353;23;20025;-84
2022/03/26 07:58:59;;;;;;;53.78;30.63;;;12.40;1.00;;;;;;6095275;23;20026;-84
2022/03/26 08:14:30;;;;;;;62.72;32.13;;;13.70;1.00;;;;;;6093589;23;20043;-84
2022/03/26 08:29:52;;;;;;;52.38;30.83;;;15.70;1.00;;;;;;6214956;23;20483;-83
2022/03/26 08:32:42;;;;;;;55.85;32.83;;;16.40;1.00;;;;;;6196569;23;20028;-85
2022/03/26 08:36:11;;;;;;;57.28;31.95;;;16.90;1.00;;;;;;6226005;23;20318;-84
2022/03/26 08:38:58;;;;;;;52.60;31.08;;;17.10;1.00;;;;;;6229023;23;20021;-84
2022/03/26 08:41:55;;;;;;;57.70;32.22;;;17.80;1.00;;;;;;6212251;23;20029;-83
2022/03/26 08:57:48;;;;;;;52.67;31.15;;;18.40;1.00;;;;;;6233986;23;20107;-84
2022/03/26 09:04:36;;;;;;;54.65;33.22;;;19.10;1.00;;;;;;6226352;23;20039;-87
2022/03/26 09:07:27;;;;;;;52.63;31.45;;;18.80;1.00;;;;;;6200170;23;20044;-83
2022/03/26 09:10:15;;;;;;;49.50;32.88;;;19.00;1.00;;;;;;6218314;23;20020;-84
2022/03/26 09:13:03;;;;;;;49.60;31.10;;;19.10;1.00;;;;;;6216848;23;20100;-82
2022/03/26 09:15:52;;;;;;;49.38;29.80;;;18.80;1.00;;;;;;6216897;23;20028;-85
2022/03/26 09:18:41;;;;;;;53.25;31.98;;;19.10;1.00;;;;;;6212200;23;20028;-84
2022/03/26 09:21:31;;;;;;;54.28;32.97;;;19.50;1.00;;;;;;6215782;23;20024;-83
2022/03/26 09:24:18;;;;;;;49.08;32.15;;;19.80;1.00;;;;;;6214654;23;20035;-84
2022/03/26 09:27:06;;;;;;;51.13;31.80;;;19.70;1.00;;;;;;6214511;23;20176;-82
2022/03/26 09:29:54;;;;;;;53.95;31.63;;;20.30;1.00;;;;;;6172415;23;20024;-84
2022/03/26 09:32:45;;;;;;;52.38;33.75;;;20.50;1.00;;;;;;6216550;23;20049;-84
2022/03/26 09:35:34;;;;;;;54.10;32.28;;;20.30;1.00;;;;;;6213497;23;20052;-84
2022/03/26 09:38:22;;;;;;;47.88;30.95;;;20.60;1.00;;;;;;6215121;23;20040;-85
2022/03/26 09:41:10;;;;;;;50.90;32.75;;;20.90;1.00;;;;;;6215333;23;20028;-82
2022/03/26 09:43:59;;;;;;;51.67;32.00;;;21.60;1.00;;;;;;6217167;23;20025;-83
2022/03/26 09:46:46;;;;;;;49.40;32.67;;;21.60;1.00;;;;;;6213433;23;20411;-84
2022/03/26 09:49:39;;;;;;;53.17;33.55;;;21.10;1.00;;;;;;6215474;23;20020;-83
2022/03/26 09:52:27;;;;;;;55.28;33.15;;;21.30;1.00;;;;;;6217077;23;20166;-84
2022/03/26 09:55:19;;;;;;;49.60;31.88;;;21.30;1.00;;;;;;6197299;23;20032;-85
2022/03/26 09:58:07;;;;;;;56.55;33.05;;;21.00;1.00;;;;;;6216121;23;20028;-83
2022/03/26 10:01:00;;;;;;;55.60;31.08;;;20.50;1.00;;;;;;6194881;23;20098;-88
2022/03/26 10:04:21;;;;;;;52.47;32.97;;;20.60;1.00;;;;;;6215372;23;20447;-86
2022/03/26 10:07:09;;;;;;;51.70;33.13;;;20.60;1.00;;;;;;6193131;23;20369;-84
2022/03/26 10:09:58;;;;;;;48.67;31.70;;;21.10;1.00;;;;;;6213641;23;20024;-83
2022/03/26 10:12:50;;;;;;;51.92;33.33;;;21.40;1.00;;;;;;6216782;23;20028;-84
2022/03/26 10:15:39;;;;;;;50.47;34.10;;;20.90;1.00;;;;;;6216670;23;20021;-85
2022/03/26 10:18:38;;;;;;;50.63;32.40;;;20.90;1.00;;;;;;6216639;23;20080;-82
2022/03/26 10:21:27;;;;;;;54.45;31.42;;;21.30;1.00;;;;;;6194270;23;20343;-83
2022/03/26 10:24:14;;;;;;;48.75;32.67;;;21.80;1.00;;;;;;6218138;23;20028;-84
2022/03/26 10:27:11;;;;;;;51.72;33.03;;;21.70;1.00;;;;;;6215116;23;20024;-84
2022/03/26 10:30:01;;;;;;;55.00;33.72;;;21.60;1.00;;;;;;6217653;23;20048;-85
2022/03/26 10:32:52;;;;;;;52.78;33.13;;;21.50;1.00;;;;;;6215708;23;20024;-84
2022/03/26 10:35:59;;;;;;;47.95;32.85;;;22.10;1.00;;;;;;6220692;23;20039;-84
2022/03/26 10:38:46;;;;;;;54.88;34.05;;;22.10;1.00;;;;;;6222945;23;20413;-84
2022/03/26 10:41:34;;;;;;;54.92;32.20;;;21.30;1.00;;;;;;6224680;22;20039;-84
2022/03/26 10:44:32;;;;;;;49.22;33.13;;;21.50;1.00;;;;;;6222621;23;20025;-86
2022/03/26 10:47:20;;;;;;;50.42;32.58;;;21.30;1.00;;;;;;6221243;23;20066;-85
2022/03/26 10:50:08;;;;;;;53.85;31.85;;;20.60;1.00;;;;;;6220056;23;20102;-87
2022/03/26 10:52:56;;;;;;;50.70;31.88;;;21.20;1.00;;;;;;6221636;23;20032;-84
2022/03/26 10:55:43;;;;;;;48.63;31.13;;;21.40;1.00;;;;;;6201360;23;20059;-88
2022/03/26 10:58:33;;;;;;;48.05;31.33;;;21.50;1.00;;;;;;6219711;23;20028;-84
2022/03/26 11:01:21;;;;;;;51.65;31.58;;;20.60;1.00;;;;;;6219262;23;20368;-85
2022/03/26 11:04:12;;;;;;;51.22;31.35;;;20.90;1.00;;;;;;6216763;23;20059;-83
2022/03/26 11:07:01;;;;;;;56.72;32.25;;;20.80;1.00;;;;;;6200642;23;20028;-84
2022/03/26 11:09:49;;;;;;;52.47;32.55;;;21.20;1.00;;;;;;6219486;23;20048;-84
2022/03/26 11:12:46;;;;;;;52.92;31.35;;;22.10;1.00;;;;;;6218703;23;20029;-84
2022/03/26 11:15:40;;;;;;;49.97;30.90;;;22.10;1.00;;;;;;6195972;23;20029;-84
2022/03/26 11:18:42;;;;;;;42.38;29.00;;;22.50;1.00;;;;;;6198973;23;20044;-84
2022/03/26 11:22:07;;;;;;;49.03;29.52;;;21.80;1.00;;;;;;6222471;23;20459;-85
2022/03/26 11:25:15;;;;;;;41.60;27.73;;;22.00;1.00;;;;;;6219258;23;20062;-84
2022/03/26 11:28:08;;;;;;;47.03;30.08;;;22.60;1.00;;;;;;6223328;23;20025;-86
2022/03/26 11:30:58;;;;;;;46.33;29.92;;;22.70;1.00;;;;;;6222800;23;20020;-85
2022/03/26 11:33:48;;;;;;;49.28;31.33;;;22.30;1.00;;;;;;6222611;23;20459;-87
2022/03/26 11:36:36;;;;;;;53.22;30.90;;;22.80;1.00;;;;;;6222049;23;20060;-84
2022/03/26 11:39:23;;;;;;;45.30;29.77;;;23.20;1.00;;;;;;6202702;23;20028;-87
2022/03/26 11:42:13;;;;;;;53.30;31.85;;;24.10;1.00;;;;;;6224115;23;20072;-87
2022/03/26 12:08:38;;;;;;;48.80;28.77;;;23.80;1.00;;;;;;6257342;22;20023;-82
2022/03/26 12:11:27;;;;;;;41.30;28.25;;;24.00;1.00;;;;;;6199716;22;20384;-86
2022/03/26 12:14:14;;;;;;;43.40;28.30;;;24.90;1.00;;;;;;6207930;23;20300;-83
2022/03/26 12:17:03;;;;;;;39.25;27.08;;;25.10;99.90;;;;;;6250729;23;20039;-85
2022/03/26 12:19:51;;;;;;;38.58;26.77;;;25.70;99.90;;;;;;6246033;23;20024;-86
2022/03/26 12:22:43;;;;;;;42.03;27.27;;;27.00;99.90;;;;;;6227920;23;20024;-87
2022/03/26 12:25:49;;;;;;;36.87;27.13;;;27.40;99.90;;;;;;6246992;23;20108;-84
2022/03/26 12:28:39;;;;;;;40.80;26.13;;;26.50;1.00;;;;;;6229043;23;20404;-84
2022/03/26 12:31:29;;;;;;;42.30;26.75;;;25.80;1.00;;;;;;6249617;23;20031;-85
2022/03/26 12:34:18;;;;;;;40.15;27.20;;;25.80;1.00;;;;;;6245960;23;20419;-86
2022/03/26 12:37:05;;;;;;;41.70;27.10;;;25.30;1.00;;;;;;6248413;23;20265;-86
2022/03/26 12:39:52;;;;;;;40.28;27.60;;;25.30;1.00;;;;;;6245075;23;20028;-84
2022/03/26 12:42:40;;;;;;;38.58;26.40;;;25.20;1.00;;;;;;6247090;23;20028;-82
2022/03/26 12:45:31;;;;;;;38.53;27.17;;;25.10;1.00;;;;;;6246555;23;20466;-84
2022/03/26 12:48:22;;;;;;;39.90;26.27;;;25.00;1.00;;;;;;6221914;23;20342;-87
2022/03/26 12:51:10;;;;;;;41.85;26.92;;;25.50;1.00;;;;;;6244784;23;20030;-86
2022/03/26 12:53:58;;;;;;;39.03;25.33;;;25.50;1.00;;;;;;6246666;23;20039;-86
2022/03/26 12:56:49;;;;;;;42.05;25.55;;;25.40;1.00;;;;;;6247192;23;20103;-81
2022/03/26 12:59:38;;;;;;;38.70;25.92;;;24.90;1.00;;;;;;6228522;23;20040;-83
2022/03/26 13:02:28;;;;;;;42.63;27.02;;;25.00;1.00;;;;;;6247263;23;20051;-84
2022/03/26 13:05:16;;;;;;;41.75;25.55;;;25.20;1.00;;;;;;6252951;23;20020;-84
2022/03/26 13:08:10;;;;;;;39.65;26.92;;;25.20;1.00;;;;;;6246751;23;20028;-84
2022/03/26 13:11:08;;;;;;;39.33;24.75;;;25.40;1.00;;;;;;6250920;23;20024;-84
2022/03/26 13:13:58;;;;;;;40.22;25.60;;;25.40;1.00;;;;;;6244903;22;20028;-87
2022/03/26 13:16:51;;;;;;;36.67;25.33;;;26.30;1.00;;;;;;6255609;22;20020;-85
2022/03/26 13:19:45;;;;;;;35.65;25.23;;;26.70;1.00;;;;;;6281300;22;20027;-88
2022/03/26 13:22:37;;;;;;;37.25;24.13;;;26.20;1.00;;;;;;6278370;22;20054;-81
2022/03/26 13:25:25;;;;;;;;;;;25.70;1.00;;;;;;6285256;22;20103;-84
2022/03/26 13:28:19;;;;;;;38.13;24.45;;;25.20;1.00;;;;;;6290352;22;19984;-83
2022/03/26 13:31:22;;;;;;;37.28;24.92;;;25.10;1.00;;;;;;6265624;22;20466;-84
2022/03/26 13:34:14;;;;;;;34.42;24.17;;;25.70;1.00;;;;;;6278642;22;20112;-88
2022/03/26 13:37:09;;;;;;;35.50;24.13;;;26.60;1.00;;;;;;6280486;22;20028;-85
2022/03/26 13:40:03;;;;;;;33.60;22.55;;;26.40;1.00;;;;;;6281904;22;20024;-85
2022/03/26 13:42:52;;;;;;;32.65;22.17;;;26.00;1.00;;;;;;6258028;22;20027;-83
2022/03/26 13:45:44;;;;;;;32.63;22.58;;;25.70;1.00;;;;;;6285845;22;20024;-84
2022/03/26 13:48:51;;;;;;;34.55;24.35;;;24.70;1.00;;;;;;6263254;22;20076;-84
2022/03/26 13:51:39;;;;;;;30.33;21.00;;;24.20;1.00;;;;;;6282250;22;20039;-85
2022/03/26 13:54:34;;;;;;;34.30;21.92;;;24.70;1.00;;;;;;6260425;22;20015;-87
2022/03/26 13:57:33;;;;;;;29.30;20.88;;;25.00;1.00;;;;;;6261468;22;20066;-86
2022/03/26 14:00:23;;;;;;;30.50;20.88;;;26.00;1.00;;;;;;6287495;22;20038;-84
2022/03/26 14:03:11;;;;;;;31.23;18.70;;;26.70;1.00;;;;;;6285197;22;20038;-82
2022/03/26 14:06:01;;;;;;;26.45;18.63;;;27.10;1.00;;;;;;6282532;22;20035;-86
2022/03/26 14:08:49;;;;;;;27.90;17.63;;;26.00;1.00;;;;;;6278598;22;20027;-84
2022/03/26 14:11:36;;;;;;;27.63;18.83;;;24.80;1.00;;;;;;6257463;22;20288;-85
2022/03/26 14:14:23;;;;;;;29.25;19.48;;;24.20;1.00;;;;;;6254680;22;20039;-83
2022/03/26 14:17:11;;;;;;;29.27;19.13;;;24.30;1.00;;;;;;6257880;22;20030;-85
2022/03/26 14:19:59;;;;;;;31.83;19.77;;;24.80;1.00;;;;;;6276761;22;20023;-87
2022/03/26 14:22:47;;;;;;;26.88;17.45;;;25.20;1.00;;;;;;6278258;22;20031;-86
2022/03/26 14:25:36;;;;;;;27.42;17.98;;;24.90;1.00;;;;;;6278542;22;20028;-86
2022/03/26 14:28:24;;;;;;;28.27;16.88;;;24.70;1.00;;;;;;6259312;22;20040;-83
2022/03/26 14:31:12;;;;;;;25.33;16.52;;;24.80;1.00;;;;;;6254798;22;20332;-83
2022/03/26 14:34:00;;;;;;;25.38;16.48;;;24.10;1.00;;;;;;6237590;22;20403;-86
2022/03/26 14:37:08;;;;;;;28.92;18.70;;;23.60;1.00;;;;;;6278288;22;20400;-83
2022/03/26 14:39:57;;;;;;;26.70;17.23;;;23.40;1.00;;;;;;6259718;22;20035;-84
2022/03/26 14:42:45;;;;;;;33.88;17.85;;;23.90;1.00;;;;;;6281186;22;20024;-85
2022/03/26 14:45:33;;;;;;;30.30;17.92;;;24.10;1.00;;;;;;6256749;22;20027;-86
2022/03/26 14:48:21;;;;;;;27.58;17.00;;;24.30;1.00;;;;;;6281466;22;20378;-86
2022/03/26 14:51:09;;;;;;;24.80;17.40;;;24.90;1.00;;;;;;6278852;22;20028;-84
2022/03/26 14:53:57;;;;;;;25.60;16.85;;;23.90;99.90;;;;;;6277842;22;20026;-85
2022/03/26 14:56:45;;;;;;;32.80;19.35;;;23.50;99.90;;;;;;6280165;22;20015;-84
2022/03/26 14:59:32;;;;;;;27.02;17.00;;;23.60;1.00;;;;;;6279712;22;20035;-83
2022/03/26 15:02:24;;;;;;;26.13;17.38;;;23.50;1.00;;;;;;6257290;22;20100;-84
2022/03/26 15:05:16;;;;;;;25.60;16.42;;;23.40;1.00;;;;;;6258899;22;20024;-86
2022/03/26 15:08:03;;;;;;;29.02;17.63;;;23.90;1.00;;;;;;6260175;22;20434;-85
2022/03/26 15:10:51;;;;;;;28.60;18.05;;;22.70;1.00;;;;;;6258579;22;20055;-83
2022/03/26 15:13:40;;;;;;;29.13;17.98;;;22.90;1.00;;;;;;6281828;22;20046;-85
2022/03/26 15:16:28;;;;;;;25.20;16.98;;;22.50;1.00;;;;;;6282008;22;20055;-85
2022/03/26 15:19:16;;;;;;;23.60;16.38;;;23.00;1.00;;;;;;6278016;22;20026;-85
2022/03/26 15:22:03;;;;;;;26.17;16.77;;;23.40;1.00;;;;;;6277714;22;20039;-86
2022/03/26 15:24:51;;;;;;;26.98;18.13;;;23.10;1.00;;;;;;6278446;22;20027;-87
2022/03/26 15:27:39;;;;;;;34.65;19.35;;;22.60;1.00;;;;;;6275594;22;20023;-84
2022/03/26 15:30:26;;;;;;;34.88;18.77;;;22.30;1.00;;;;;;6275167;22;20023;-85
2022/03/26 15:33:14;;;;;;;27.83;18.63;;;22.40;1.00;;;;;;6280132;22;20035;-84
2022/03/26 15:36:02;;;;;;;28.27;18.83;;;22.30;1.00;;;;;;6286113;22;20023;-83
2022/03/26 15:38:50;;;;;;;27.45;18.88;;;22.00;1.00;;;;;;6261196;22;20058;-84
2022/03/26 15:41:40;;;;;;;29.02;17.45;;;21.80;1.00;;;;;;6255736;22;20027;-82
2022/03/26 15:44:27;;;;;;;29.73;17.55;;;22.10;1.00;;;;;;6255242;22;20038;-85
2022/03/26 15:47:15;;;;;;;27.75;18.67;;;21.70;1.00;;;;;;6276610;22;20027;-84
2022/03/26 15:50:03;;;;;;;32.28;18.63;;;21.90;1.00;;;;;;6276974;22;20072;-86
2022/03/26 15:52:51;;;;;;;30.00;16.90;;;21.70;1.00;;;;;;6274943;22;20382;-84
2022/03/26 15:55:43;;;;;;;26.75;17.65;;;21.70;1.00;;;;;;6277500;22;20034;-86
2022/03/26 15:58:34;;;;;;;27.48;17.35;;;21.20;1.00;;;;;;6255375;22;20132;-84
2022/03/26 16:01:21;;;;;;;26.80;17.17;;;21.20;1.00;;;;;;6257133;22;20351;-84
2022/03/26 16:04:09;;;;;;;26.38;16.83;;;20.90;1.00;;;;;;6281531;22;20327;-84
2022/03/26 16:06:57;;;;;;;24.55;16.67;;;20.80;1.00;;;;;;6280518;22;20023;-85
2022/03/26 16:09:48;;;;;;;29.77;16.83;;;20.90;1.00;;;;;;6280051;22;20020;-84